Time;durP1;ratioP1;P1;durP2;ratioP2;P2;SDS_P1;SDS_P2;PMS_P1;PMS_P2;Temp;Humidity;BMP_temperature;BMP_pressure;BME280_temperature;BME280_humidity;BME280_pressure;Samples;Min_cycle;Max_cycle;Signal;HPM_P1;HPM_P2
2021/10/04 00:01:30;;;;;;;12.23;5.80;;;10.40;99.90;;;;;;4855957;29;20478;-94
2021/10/04 00:03:56;;;;;;;8.60;5.00;;;10.40;99.90;;;;;;4852492;29;20140;-94
2021/10/04 00:06:22;;;;;;;12.05;6.03;;;10.40;99.90;;;;;;4862288;29;20065;-94
2021/10/04 00:08:48;;;;;;;12.82;5.20;;;10.40;99.90;;;;;;4858615;29;20486;-95
2021/10/04 00:11:13;;;;;;;13.90;5.53;;;10.40;99.90;;;;;;4845167;29;20409;-95
2021/10/04 00:13:39;;;;;;;18.23;5.40;;;10.40;99.90;;;;;;4849175;29;20046;-95
2021/10/04 00:16:05;;;;;;;14.65;5.85;;;10.40;99.90;;;;;;4868159;29;20132;-95
2021/10/04 00:18:30;;;;;;;11.90;5.13;;;10.40;99.90;;;;;;4830479;29;20052;-94
2021/10/04 00:20:56;;;;;;;19.75;5.80;;;10.40;99.90;;;;;;4860955;29;20063;-94
2021/10/04 00:23:22;;;;;;;6.68;4.38;;;10.40;99.90;;;;;;4844403;29;20045;-94
2021/10/04 00:25:48;;;;;;;17.48;5.03;;;10.40;99.90;;;;;;4846247;29;20048;-94
2021/10/04 00:28:14;;;;;;;16.63;4.82;;;10.40;99.90;;;;;;4846484;29;20060;-96
2021/10/04 00:30:40;;;;;;;12.52;4.70;;;10.40;99.90;;;;;;4854503;29;20048;-95
2021/10/04 00:33:06;;;;;;;13.10;4.35;;;10.40;99.90;;;;;;4848911;29;20041;-94
2021/10/04 00:35:32;;;;;;;11.13;4.43;;;10.50;99.90;;;;;;4845797;29;20097;-95
2021/10/04 00:37:57;;;;;;;10.43;4.30;;;10.50;99.90;;;;;;4845542;29;20112;-93
2021/10/04 00:40:28;;;;;;;12.60;4.55;;;10.50;99.90;;;;;;4860554;29;20105;-94
2021/10/04 00:42:54;;;;;;;;;;;10.50;99.90;;;;;;4861609;29;20104;-95
2021/10/04 00:45:19;;;;;;;14.70;4.55;;;10.50;99.90;;;;;;4876763;29;20031;-95
2021/10/04 00:47:46;;;;;;;15.40;4.30;;;10.50;99.90;;;;;;4862134;29;20112;-96
2021/10/04 00:50:13;;;;;;;10.25;4.15;;;10.60;99.90;;;;;;4846044;29;20059;-96
2021/10/04 00:52:39;;;;;;;6.80;3.85;;;10.60;99.90;;;;;;4861797;29;20061;-95
2021/10/04 00:55:07;;;;;;;19.08;4.00;;;10.60;99.90;;;;;;4849995;29;20049;-94
2021/10/04 00:57:33;;;;;;;8.30;3.90;;;10.60;99.90;;;;;;4861390;29;20441;-95
2021/10/04 01:00:00;;;;;;;13.60;3.72;;;10.60;99.90;;;;;;4861752;29;20055;-95
2021/10/04 01:02:25;;;;;;;13.05;3.72;;;10.60;99.90;;;;;;4861034;29;20053;-94
2021/10/04 01:04:51;;;;;;;13.55;4.05;;;10.70;99.90;;;;;;4830944;29;20112;-94
2021/10/04 01:07:17;;;;;;;7.18;3.10;;;10.60;99.90;;;;;;4847248;29;20085;-96
2021/10/04 01:09:43;;;;;;;6.32;3.15;;;10.60;99.90;;;;;;4830368;29;20556;-94
2021/10/04 01:12:09;;;;;;;9.27;3.42;;;10.60;99.90;;;;;;4845402;29;20057;-96
2021/10/04 01:14:35;;;;;;;11.80;3.47;;;10.60;99.90;;;;;;4830907;29;20504;-94
2021/10/04 01:17:01;;;;;;;12.88;3.85;;;10.60;99.90;;;;;;4862117;29;20056;-93
2021/10/04 01:19:26;;;;;;;17.05;4.35;;;10.60;99.90;;;;;;4845454;29;20057;-94
2021/10/04 01:21:52;;;;;;;11.45;4.78;;;10.60;99.90;;;;;;4830651;29;20060;-94
2021/10/04 01:24:18;;;;;;;6.45;3.38;;;10.60;99.90;;;;;;4830044;29;20162;-95
2021/10/04 01:26:45;;;;;;;14.65;3.10;;;10.60;99.90;;;;;;4876378;29;20523;-95
2021/10/04 01:29:11;;;;;;;13.15;3.70;;;10.60;99.90;;;;;;4852188;29;20045;-94
2021/10/04 01:31:37;;;;;;;12.30;3.63;;;10.60;99.90;;;;;;4836750;29;20053;-95
2021/10/04 01:34:06;;;;;;;9.07;3.17;;;10.60;99.90;;;;;;4845141;29;20052;-94
2021/10/04 01:36:33;;;;;;;12.80;3.45;;;10.60;99.90;;;;;;4833405;29;20052;-93
2021/10/04 01:38:59;;;;;;;10.68;3.05;;;10.60;99.90;;;;;;4848857;29;20057;-93
2021/10/04 01:41:25;;;;;;;11.77;3.35;;;10.60;99.90;;;;;;4848338;29;20112;-94
2021/10/04 01:43:52;;;;;;;6.32;2.53;;;10.60;99.90;;;;;;4848978;29;20140;-94
2021/10/04 01:46:19;;;;;;;7.65;3.35;;;10.60;99.90;;;;;;4857529;29;20052;-92
2021/10/04 01:48:45;;;;;;;8.63;3.60;;;10.60;99.90;;;;;;4848689;29;20072;-93
2021/10/04 01:51:10;;;;;;;7.10;2.83;;;10.60;99.90;;;;;;4863899;29;20412;-93
2021/10/04 01:53:36;;;;;;;9.07;2.60;;;10.60;99.90;;;;;;4848935;29;20151;-94
2021/10/04 01:56:02;;;;;;;11.40;3.40;;;10.60;99.90;;;;;;4855560;29;20057;-94
2021/10/04 01:58:30;;;;;;;6.70;2.60;;;10.60;99.90;;;;;;4835098;29;20391;-94
2021/10/04 02:00:57;;;;;;;7.13;2.80;;;10.60;99.90;;;;;;4848682;29;20065;-94
2021/10/04 02:03:23;;;;;;;6.97;2.55;;;10.50;99.90;;;;;;4832684;29;20053;-93
2021/10/04 02:05:49;;;;;;;8.45;3.22;;;10.60;99.90;;;;;;4864011;29;20056;-94
2021/10/04 02:08:15;;;;;;;7.55;2.70;;;10.60;99.90;;;;;;4863809;29;20125;-94
2021/10/04 02:10:42;;;;;;;11.82;3.20;;;10.60;99.90;;;;;;4831943;29;20490;-94
2021/10/04 02:13:09;;;;;;;10.57;3.15;;;10.60;99.90;;;;;;4848636;29;20136;-95
2021/10/04 02:15:38;;;;;;;14.27;2.88;;;10.60;99.90;;;;;;4863458;29;20049;-96
2021/10/04 02:18:04;;;;;;;6.28;2.47;;;10.60;99.90;;;;;;4848269;29;20060;-95
2021/10/04 02:20:32;;;;;;;10.32;3.05;;;10.50;99.90;;;;;;4848005;29;20040;-96
2021/10/04 02:23:05;;;;;;;8.70;2.47;;;10.60;99.90;;;;;;4847551;29;20409;-94
2021/10/04 02:25:46;;;;;;;10.43;3.08;;;10.60;99.90;;;;;;4847820;29;20128;-95
2021/10/04 02:28:14;;;;;;;14.45;3.25;;;10.50;99.90;;;;;;4847370;29;20256;-93
2021/10/04 02:30:40;;;;;;;10.20;2.95;;;10.50;99.90;;;;;;4847416;29;20056;-94
2021/10/04 02:33:07;;;;;;;7.97;2.65;;;10.50;99.90;;;;;;4847151;29;20061;-94
2021/10/04 02:35:33;;;;;;;18.02;2.70;;;10.50;99.90;;;;;;4853444;29;20810;-93
2021/10/04 02:37:59;;;;;;;10.13;2.97;;;10.50;99.90;;;;;;4849887;29;20104;-95
2021/10/04 02:40:26;;;;;;;11.32;2.75;;;10.50;99.90;;;;;;4832250;29;20052;-94
2021/10/04 02:42:53;;;;;;;10.63;2.75;;;10.50;99.90;;;;;;4831898;29;20121;-94
2021/10/04 02:45:20;;;;;;;8.38;2.20;;;10.50;99.90;;;;;;4846686;29;20531;-94
2021/10/04 02:47:48;;;;;;;10.30;2.58;;;10.50;99.90;;;;;;4846757;29;20060;-94
2021/10/04 02:50:17;;;;;;;6.90;2.35;;;10.50;99.90;;;;;;4846440;29;20068;-94
2021/10/04 02:52:43;;;;;;;15.05;3.38;;;10.50;99.90;;;;;;4847377;29;20068;-94
2021/10/04 02:55:09;;;;;;;12.00;2.80;;;10.50;99.90;;;;;;4847136;29;20566;-94
2021/10/04 02:57:35;;;;;;;12.00;3.38;;;10.50;99.90;;;;;;4846273;29;20052;-95
2021/10/04 03:00:01;;;;;;;9.00;2.35;;;10.50;99.90;;;;;;4815661;29;20060;-92
2021/10/04 03:02:27;;;;;;;11.30;2.78;;;10.50;99.90;;;;;;4831087;29;20481;-93
2021/10/04 03:04:53;;;;;;;9.25;1.92;;;10.50;99.90;;;;;;4847283;29;20060;-94
2021/10/04 03:07:19;;;;;;;6.88;2.08;;;10.50;99.90;;;;;;4846117;29;20073;-93
2021/10/04 03:09:44;;;;;;;7.10;2.55;;;10.50;99.90;;;;;;4828322;29;20068;-93
2021/10/04 03:12:10;;;;;;;11.85;2.20;;;10.50;99.90;;;;;;4857355;29;20132;-93
2021/10/04 03:14:36;;;;;;;9.02;2.20;;;10.60;99.90;;;;;;4849188;29;20564;-94
2021/10/04 03:17:03;;;;;;;12.50;2.58;;;10.60;99.90;;;;;;4846876;29;20052;-95
2021/10/04 03:19:29;;;;;;;4.05;2.05;;;10.60;99.90;;;;;;4861815;29;20053;-94
2021/10/04 03:21:55;;;;;;;10.95;2.30;;;10.60;99.90;;;;;;4847034;29;20059;-92
2021/10/04 03:24:21;;;;;;;9.63;2.28;;;10.60;99.90;;;;;;4832952;29;20073;-94
2021/10/04 03:26:47;;;;;;;10.70;2.20;;;10.60;99.90;;;;;;4847578;29;20104;-94
2021/10/04 03:29:16;;;;;;;5.43;1.80;;;10.60;99.90;;;;;;4862260;29;20063;-95
2021/10/04 03:31:43;;;;;;;10.65;2.28;;;10.60;99.90;;;;;;4847484;29;20056;-95
2021/10/04 03:34:08;;;;;;;12.07;2.45;;;10.60;99.90;;;;;;4861801;29;20053;-95
2021/10/04 03:36:34;;;;;;;11.07;2.15;;;10.60;99.90;;;;;;4832087;29;20112;-96
2021/10/04 03:39:00;;;;;;;10.23;2.05;;;10.60;99.90;;;;;;4833363;29;20405;-96
2021/10/04 03:41:26;;;;;;;9.95;1.73;;;10.50;99.90;;;;;;4862858;29;20053;-96
2021/10/04 03:43:52;;;;;;;9.18;1.92;;;10.50;99.90;;;;;;4862529;29;20442;-96
2021/10/04 03:46:18;;;;;;;11.25;2.22;;;10.50;99.90;;;;;;4846982;29;20087;-96
2021/10/04 03:48:43;;;;;;;10.07;1.98;;;10.50;99.90;;;;;;4834816;29;20056;-96
2021/10/04 03:51:09;;;;;;;10.85;2.17;;;10.50;99.90;;;;;;4865234;29;20052;-96
2021/10/04 03:53:35;;;;;;;5.82;1.92;;;10.40;99.90;;;;;;4873761;29;20124;-96
2021/10/04 03:56:01;;;;;;;4.60;1.52;;;10.40;99.90;;;;;;4861827;29;20052;-95
2021/10/04 03:58:27;;;;;;;9.50;1.85;;;10.40;99.90;;;;;;4861976;29;20053;-96
2021/10/04 04:00:52;;;;;;;17.10;3.60;;;10.40;99.90;;;;;;4849419;29;20108;-96
2021/10/04 04:03:18;;;;;;;6.60;1.55;;;10.30;99.90;;;;;;4850130;29;20049;-95
2021/10/04 04:05:44;;;;;;;9.95;2.70;;;10.30;99.90;;;;;;4845934;29;20052;-94
2021/10/04 04:08:09;;;;;;;10.38;2.30;;;10.30;99.90;;;;;;4846405;29;20044;-96
2021/10/04 04:10:35;;;;;;;10.52;2.75;;;10.30;99.90;;;;;;4830015;29;20060;-95
2021/10/04 04:13:01;;;;;;;9.48;2.33;;;10.30;99.90;;;;;;4830471;29;20049;-96
2021/10/04 04:15:27;;;;;;;11.88;2.28;;;10.30;99.90;;;;;;4830006;29;20493;-96
2021/10/04 04:17:53;;;;;;;14.77;2.08;;;10.20;99.90;;;;;;4846973;29;20045;-94
2021/10/04 04:20:19;;;;;;;10.23;1.80;;;10.20;99.90;;;;;;4845594;29;20056;-94
2021/10/04 04:22:46;;;;;;;11.10;2.08;;;10.10;99.90;;;;;;4845690;29;20517;-94
2021/10/04 04:25:13;;;;;;;7.80;2.00;;;10.20;99.90;;;;;;4845990;29;20053;-94
2021/10/04 04:27:39;;;;;;;11.70;1.92;;;10.10;99.90;;;;;;4845544;29;20209;-93
2021/10/04 04:30:07;;;;;;;7.60;2.05;;;10.10;99.90;;;;;;4846232;29;20057;-94
2021/10/04 04:32:33;;;;;;;12.32;2.00;;;10.10;99.90;;;;;;4876574;29;20053;-94
2021/10/04 04:35:04;;;;;;;15.55;2.10;;;10.10;99.90;;;;;;4830850;29;20053;-96
2021/10/04 04:37:31;;;;;;;15.35;2.10;;;10.10;99.90;;;;;;4833562;29;20049;-93
2021/10/04 04:39:57;;;;;;;4.43;1.38;;;10.00;99.90;;;;;;4874348;29;20084;-93
2021/10/04 04:42:22;;;;;;;16.95;2.15;;;10.00;99.90;;;;;;4848271;29;20088;-92
2021/10/04 04:44:48;;;;;;;13.05;2.13;;;10.00;99.90;;;;;;4844805;29;20049;-94
2021/10/04 04:47:14;;;;;;;10.35;2.00;;;9.90;99.90;;;;;;4861584;29;20081;-95
2021/10/04 04:49:40;;;;;;;7.80;1.92;;;9.90;99.90;;;;;;4835744;29;20081;-96
2021/10/04 04:52:06;;;;;;;7.43;1.85;;;9.90;99.90;;;;;;4851919;29;20133;-96
2021/10/04 04:54:31;;;;;;;6.47;1.92;;;10.00;99.90;;;;;;4866546;29;20105;-96
2021/10/04 04:56:59;;;;;;;12.80;1.80;;;9.90;99.90;;;;;;4848776;29;20049;-95
2021/10/04 04:59:25;;;;;;;8.50;1.80;;;9.90;99.90;;;;;;4851942;29;20056;-96
2021/10/04 05:01:51;;;;;;;13.60;2.40;;;9.90;99.90;;;;;;4848970;29;20051;-95
2021/10/04 05:04:17;;;;;;;6.90;1.90;;;9.90;99.90;;;;;;4831348;29;20068;-95
2021/10/04 05:06:43;;;;;;;8.27;1.65;;;9.90;99.90;;;;;;4845893;29;20045;-96
2021/10/04 05:09:10;;;;;;;7.28;1.92;;;9.90;99.90;;;;;;4860942;29;20101;-95
2021/10/04 05:11:35;;;;;;;4.93;1.88;;;9.90;99.90;;;;;;4848361;29;20104;-96
2021/10/04 05:14:01;;;;;;;6.00;1.90;;;9.90;99.90;;;;;;4849235;29;20053;-95
2021/10/04 05:16:27;;;;;;;7.07;1.85;;;9.90;99.90;;;;;;4833756;29;20053;-96
2021/10/04 05:18:53;;;;;;;9.82;1.77;;;10.00;99.90;;;;;;4865185;29;20089;-94
2021/10/04 05:21:19;;;;;;;9.80;2.40;;;9.90;99.90;;;;;;4849013;29;20131;-96
2021/10/04 05:23:45;;;;;;;5.90;1.50;;;10.00;99.90;;;;;;4830036;29;20633;-94
2021/10/04 05:26:10;;;;;;;6.85;2.00;;;10.00;99.90;;;;;;4875126;29;20496;-95
2021/10/04 05:28:36;;;;;;;4.85;1.73;;;9.90;99.90;;;;;;4833702;29;20465;-95
2021/10/04 05:31:02;;;;;;;14.90;1.95;;;10.00;99.90;;;;;;4818363;29;20061;-95
2021/10/04 05:33:28;;;;;;;8.82;1.70;;;10.00;99.90;;;;;;4863944;29;20397;-95
2021/10/04 05:35:53;;;;;;;6.13;1.70;;;10.00;99.90;;;;;;4849391;29;20056;-95
2021/10/04 05:38:19;;;;;;;6.18;1.75;;;10.00;99.90;;;;;;4833514;29;20477;-94
2021/10/04 05:40:45;;;;;;;4.57;1.67;;;10.10;99.90;;;;;;4848879;29;20700;-96
2021/10/04 05:43:11;;;;;;;8.00;2.05;;;10.00;99.90;;;;;;4848701;29;20400;-94
2021/10/04 05:45:37;;;;;;;14.50;2.50;;;10.00;99.90;;;;;;4864191;29;20667;-95
2021/10/04 05:48:04;;;;;;;3.92;1.60;;;10.00;99.90;;;;;;4834003;29;20133;-96
2021/10/04 05:50:30;;;;;;;5.45;1.80;;;10.00;99.90;;;;;;4846737;29;20061;-95
2021/10/04 05:52:55;;;;;;;10.88;2.42;;;10.00;99.90;;;;;;4832374;29;20052;-95
2021/10/04 05:55:21;;;;;;;8.55;1.75;;;10.00;99.90;;;;;;4847490;29;20056;-96
2021/10/04 05:57:47;;;;;;;11.43;1.80;;;10.00;99.90;;;;;;4847436;29;20057;-95
2021/10/04 06:00:14;;;;;;;10.00;2.25;;;10.00;99.90;;;;;;4863380;29;20045;-95
2021/10/04 06:02:40;;;;;;;5.80;1.27;;;10.10;99.90;;;;;;4862688;29;20049;-96
2021/10/04 06:05:07;;;;;;;9.35;1.70;;;10.10;99.90;;;;;;4863463;29;20481;-95
2021/10/04 06:07:33;;;;;;;10.82;2.00;;;10.10;99.90;;;;;;4849734;29;20095;-95
2021/10/04 06:09:59;;;;;;;2.97;1.40;;;10.10;99.90;;;;;;4850306;29;20093;-96
2021/10/04 06:12:26;;;;;;;5.55;1.42;;;10.10;99.90;;;;;;4854942;29;20099;-94
2021/10/04 06:15:00;;;;;;;8.55;1.45;;;10.10;99.90;;;;;;4842194;29;20076;-95
2021/10/04 06:17:27;;;;;;;8.05;1.70;;;10.10;99.90;;;;;;4849598;29;20053;-96
2021/10/04 06:19:53;;;;;;;7.45;1.80;;;10.20;99.90;;;;;;4868365;29;20045;-95
2021/10/04 06:22:20;;;;;;;5.70;1.90;;;10.20;99.90;;;;;;4863104;29;20124;-95
2021/10/04 06:24:46;;;;;;;9.20;1.90;;;10.20;99.90;;;;;;4847776;29;20047;-95
2021/10/04 06:27:11;;;;;;;8.15;1.75;;;10.20;99.90;;;;;;4847947;29;20462;-94
2021/10/04 06:29:38;;;;;;;8.88;1.50;;;10.20;99.90;;;;;;4831718;29;20045;-93
2021/10/04 06:32:06;;;;;;;5.97;1.80;;;10.30;99.90;;;;;;4851691;29;20064;-94
2021/10/04 06:34:33;;;;;;;7.00;1.67;;;10.30;99.90;;;;;;4849685;29;20061;-94
2021/10/04 06:36:58;;;;;;;5.55;1.83;;;10.40;99.90;;;;;;4863218;29;20053;-94
2021/10/04 06:39:24;;;;;;;6.80;2.75;;;10.40;99.90;;;;;;4847475;29;20059;-94
2021/10/04 06:41:50;;;;;;;7.63;1.88;;;10.40;99.90;;;;;;4839031;29;20645;-94
2021/10/04 06:44:16;;;;;;;4.65;1.70;;;10.50;99.90;;;;;;4847000;29;20049;-96
2021/10/04 06:46:41;;;;;;;6.25;1.80;;;10.50;99.90;;;;;;4831739;29;20049;-94
2021/10/04 06:49:07;;;;;;;3.15;1.48;;;10.50;99.90;;;;;;4847467;29;20064;-95
2021/10/04 06:51:33;;;;;;;6.93;1.60;;;10.60;99.90;;;;;;4847606;29;20053;-95
2021/10/04 06:53:59;;;;;;;9.65;1.67;;;10.60;99.90;;;;;;4862855;29;20528;-96
2021/10/04 06:56:25;;;;;;;10.20;1.83;;;10.60;99.90;;;;;;4848136;29;20076;-95
2021/10/04 06:58:51;;;;;;;4.15;1.65;;;10.60;99.90;;;;;;4862561;29;20045;-95
2021/10/04 07:01:17;;;;;;;4.93;1.60;;;10.70;99.90;;;;;;4862629;29;20052;-94
2021/10/04 07:03:43;;;;;;;5.13;1.80;;;10.70;99.90;;;;;;4848915;29;20142;-93
2021/10/04 07:06:09;;;;;;;9.80;1.85;;;10.70;99.90;;;;;;4845979;29;20066;-94
2021/10/04 07:08:35;;;;;;;14.65;1.60;;;10.70;99.90;;;;;;4832306;29;20496;-95
2021/10/04 07:11:01;;;;;;;9.35;1.58;;;10.80;99.90;;;;;;4818826;29;20076;-95
2021/10/04 07:13:27;;;;;;;11.52;1.92;;;10.80;99.90;;;;;;4856940;29;20045;-95
2021/10/04 07:15:53;;;;;;;6.43;1.63;;;10.80;99.90;;;;;;4831616;29;20052;-95
2021/10/04 07:18:22;;;;;;;5.30;1.42;;;10.90;99.90;;;;;;4834375;29;20053;-95
2021/10/04 07:20:49;;;;;;;8.10;1.95;;;10.90;99.90;;;;;;4817052;29;20049;-95
2021/10/04 07:23:16;;;;;;;7.85;1.85;;;10.90;99.90;;;;;;4831666;29;20041;-94
2021/10/04 07:25:42;;;;;;;6.82;1.88;;;10.90;99.90;;;;;;4845260;29;20568;-93
2021/10/04 07:28:08;;;;;;;5.13;1.90;;;10.90;99.90;;;;;;4830747;29;20139;-93
2021/10/04 07:30:35;;;;;;;8.30;1.73;;;11.00;99.90;;;;;;4815640;29;20049;-94
2021/10/04 07:33:03;;;;;;;6.05;2.22;;;11.00;99.90;;;;;;4844626;29;20049;-95
2021/10/04 07:35:29;;;;;;;7.35;1.48;;;11.10;99.90;;;;;;4866472;29;20508;-95
2021/10/04 07:37:55;;;;;;;4.53;1.67;;;11.10;99.90;;;;;;4855246;29;20090;-93
2021/10/04 07:40:22;;;;;;;6.03;1.80;;;11.10;99.90;;;;;;4831102;29;20052;-94
2021/10/04 07:42:48;;;;;;;4.72;1.60;;;11.10;99.90;;;;;;4831260;29;20045;-94
2021/10/04 07:45:14;;;;;;;6.72;1.67;;;11.20;99.90;;;;;;4856749;29;20066;-93
2021/10/04 07:47:40;;;;;;;9.05;2.28;;;11.20;99.90;;;;;;4846573;29;20644;-96
2021/10/04 07:50:10;;;;;;;9.63;1.50;;;11.20;99.90;;;;;;4854211;29;20061;-94
2021/10/04 07:52:36;;;;;;;4.00;1.42;;;11.20;99.90;;;;;;4874143;29;20117;-94
2021/10/04 07:55:05;;;;;;;7.32;1.98;;;11.20;99.90;;;;;;4861726;29;20051;-93
2021/10/04 07:57:31;;;;;;;7.72;1.60;;;11.20;99.90;;;;;;4862356;29;20048;-93
2021/10/04 07:59:57;;;;;;;8.10;1.60;;;11.30;99.90;;;;;;4846183;29;20614;-94
2021/10/04 08:02:23;;;;;;;8.43;1.90;;;11.30;99.90;;;;;;4835532;29;20504;-94
2021/10/04 08:04:48;;;;;;;2.70;1.60;;;11.30;99.90;;;;;;4849849;29;20085;-93
2021/10/04 08:07:14;;;;;;;12.63;2.05;;;11.30;99.90;;;;;;4848302;29;20049;-94
2021/10/04 08:09:40;;;;;;;5.03;1.50;;;11.40;99.90;;;;;;4819827;29;20065;-95
2021/10/04 08:12:06;;;;;;;7.43;1.85;;;11.50;99.90;;;;;;4846135;29;20045;-95
2021/10/04 08:14:33;;;;;;;10.77;2.00;;;11.40;99.90;;;;;;4831958;29;20037;-95
2021/10/04 08:17:00;;;;;;;4.78;1.63;;;11.50;99.90;;;;;;4860189;29;20061;-94
2021/10/04 08:19:26;;;;;;;6.03;1.92;;;11.50;99.90;;;;;;4846647;29;20139;-93
2021/10/04 08:21:53;;;;;;;7.15;1.90;;;11.60;99.90;;;;;;4844550;29;20080;-94
2021/10/04 08:24:19;;;;;;;4.68;1.52;;;11.60;99.90;;;;;;4845632;29;20101;-93
2021/10/04 08:26:45;;;;;;;6.60;1.90;;;11.70;99.90;;;;;;4830087;29;20111;-91
2021/10/04 08:29:11;;;;;;;6.43;2.20;;;11.70;99.90;;;;;;4819203;29;20049;-92
2021/10/04 08:31:36;;;;;;;6.68;1.30;;;11.80;99.90;;;;;;4842747;29;20060;-91
2021/10/04 08:34:05;;;;;;;6.25;1.80;;;11.80;99.90;;;;;;4841271;29;20051;-91
2021/10/04 08:36:33;;;;;;;7.60;1.70;;;11.90;99.90;;;;;;4844649;29;20127;-90
2021/10/04 08:38:59;;;;;;;5.35;1.55;;;11.90;99.90;;;;;;4857937;29;20095;-90
2021/10/04 08:41:25;;;;;;;7.10;1.83;;;12.00;99.90;;;;;;4847726;29;20154;-91
2021/10/04 08:43:53;;;;;;;3.70;1.90;;;12.00;99.90;;;;;;4828855;29;20060;-89
2021/10/04 08:46:20;;;;;;;5.53;1.80;;;12.10;99.90;;;;;;4859999;29;20045;-90
2021/10/04 08:48:47;;;;;;;10.65;1.98;;;12.10;99.90;;;;;;4828941;29;20057;-92
2021/10/04 08:51:14;;;;;;;7.82;1.95;;;12.10;99.90;;;;;;4844481;29;20140;-91
2021/10/04 08:53:41;;;;;;;6.25;1.45;;;12.10;99.90;;;;;;4862225;29;20500;-91
2021/10/04 08:56:08;;;;;;;2.80;1.52;;;12.10;99.90;;;;;;4814505;29;20057;-91
2021/10/04 08:58:35;;;;;;;7.35;1.80;;;12.10;99.90;;;;;;4845206;29;20112;-91
2021/10/04 09:01:05;;;;;;;6.10;1.50;;;12.00;99.90;;;;;;4844340;29;20056;-91
2021/10/04 09:03:47;;;;;;;4.70;1.60;;;12.00;99.90;;;;;;4840914;29;20045;-91
2021/10/04 09:06:25;;;;;;;7.45;1.52;;;11.90;99.90;;;;;;4859600;29;20053;-92
2021/10/04 09:08:53;;;;;;;8.45;1.67;;;11.90;99.90;;;;;;4843831;29;20150;-91
2021/10/04 09:11:28;;;;;;;6.57;1.80;;;11.90;99.90;;;;;;4829277;29;20449;-91
2021/10/04 09:13:54;;;;;;;5.97;1.63;;;11.80;99.90;;;;;;4858636;29;20172;-91
2021/10/04 09:16:20;;;;;;;5.38;1.88;;;11.80;99.90;;;;;;4843732;29;20127;-91
2021/10/04 09:18:45;;;;;;;6.95;1.90;;;11.80;99.90;;;;;;4858887;29;20049;-93
2021/10/04 09:21:11;;;;;;;8.73;1.77;;;11.80;99.90;;;;;;4842208;29;20125;-91
2021/10/04 09:23:51;;;;;;;4.35;1.80;;;11.80;99.90;;;;;;4844917;29;20174;-91
2021/10/04 09:26:25;;;;;;;6.18;1.58;;;11.80;99.90;;;;;;4872647;29;20132;-91
2021/10/04 09:29:06;;;;;;;17.77;1.92;;;12.00;99.90;;;;;;4858366;29;20065;-90
2021/10/04 09:31:42;;;;;;;6.00;1.73;;;12.00;99.90;;;;;;4874775;29;20378;-91
2021/10/04 09:34:15;;;;;;;5.70;1.90;;;12.20;99.90;;;;;;4843607;29;20057;-91
2021/10/04 09:36:45;;;;;;;4.95;1.85;;;12.30;99.90;;;;;;4829304;29;20449;-90
2021/10/04 09:39:32;;;;;;;2.85;1.77;;;12.40;99.90;;;;;;4859614;29;20049;-90
2021/10/04 09:42:03;;;;;;;7.30;1.75;;;12.40;99.90;;;;;;4847482;29;20049;-90
2021/10/04 09:44:47;;;;;;;5.10;1.50;;;12.50;99.90;;;;;;4849347;29;20048;-90
2021/10/04 09:47:31;;;;;;;4.47;1.50;;;12.60;99.90;;;;;;4848333;29;20053;-90
2021/10/04 09:50:02;;;;;;;4.50;1.45;;;12.70;99.90;;;;;;4858713;29;20414;-90
2021/10/04 09:52:47;;;;;;;6.50;1.83;;;12.80;99.90;;;;;;4844038;29;20061;-90
2021/10/04 09:55:25;;;;;;;6.90;2.17;;;12.80;99.90;;;;;;4847495;29;20136;-89
2021/10/04 09:57:57;;;;;;;3.33;1.40;;;12.90;99.90;;;;;;4846783;29;20121;-91
2021/10/04 10:00:24;;;;;;;4.00;1.42;;;13.00;99.90;;;;;;4847178;29;20053;-91
2021/10/04 10:02:54;;;;;;;4.65;1.50;;;13.10;99.90;;;;;;4862159;29;20049;-91
2021/10/04 10:05:24;;;;;;;;;;;13.10;99.90;;;;;;4847360;29;20158;-89
2021/10/04 10:07:50;;;;;;;5.72;1.92;;;13.20;99.90;;;;;;4847735;29;20363;-92
2021/10/04 10:10:16;;;;;;;6.82;1.70;;;13.30;99.90;;;;;;4857915;29;20040;-90
2021/10/04 10:12:42;;;;;;;8.05;1.42;;;13.40;99.90;;;;;;4863973;29;20076;-89
2021/10/04 10:15:08;;;;;;;10.48;1.50;;;13.40;99.90;;;;;;4862116;29;20457;-90
2021/10/04 10:17:35;;;;;;;5.13;1.60;;;13.40;99.90;;;;;;4829508;29;20053;-94
2021/10/04 10:20:01;;;;;;;6.95;2.00;;;13.50;99.90;;;;;;4850170;29;20041;-96
2021/10/04 10:22:33;;;;;;;4.63;1.65;;;13.60;99.90;;;;;;4862149;29;20132;-91
2021/10/04 10:25:00;;;;;;;6.30;1.40;;;13.70;99.90;;;;;;4861232;29;20049;-92
2021/10/04 10:27:41;;;;;;;8.07;1.35;;;13.70;99.90;;;;;;4847253;29;20053;-90
2021/10/04 10:30:23;;;;;;;11.60;1.75;;;13.80;99.90;;;;;;4860798;29;20108;-91
2021/10/04 10:32:49;;;;;;;5.90;1.10;;;13.90;99.90;;;;;;4860226;29;20072;-91
2021/10/04 10:35:15;;;;;;;6.75;1.98;;;14.00;99.90;;;;;;4833524;29;20048;-91
2021/10/04 10:37:51;;;;;;;6.22;1.52;;;14.10;99.90;;;;;;4855972;29;20115;-91
2021/10/04 10:40:23;;;;;;;17.77;2.25;;;14.20;99.90;;;;;;4859685;29;20056;-91
2021/10/04 10:43:09;;;;;;;16.25;1.90;;;14.30;99.90;;;;;;4858598;29;20049;-92
2021/10/04 10:45:43;;;;;;;4.68;0.95;;;14.40;99.90;;;;;;4861987;29;20049;-91
2021/10/04 10:48:11;;;;;;;7.80;2.55;;;14.50;99.90;;;;;;4881122;29;20116;-90
2021/10/04 10:50:48;;;;;;;8.70;1.30;;;14.60;99.90;;;;;;4859698;29;20056;-92
2021/10/04 10:53:17;;;;;;;8.65;1.50;;;14.70;99.90;;;;;;4843963;29;20056;-88
2021/10/04 10:55:45;;;;;;;4.45;1.17;;;14.70;99.90;;;;;;4849825;29;20061;-89
2021/10/04 10:58:15;;;;;;;7.95;1.67;;;14.70;99.90;;;;;;4848970;29;20072;-90
2021/10/04 11:01:06;;;;;;;6.10;1.38;;;14.80;99.90;;;;;;4863387;29;20514;-87
2021/10/04 11:03:43;;;;;;;8.88;1.38;;;14.80;99.90;;;;;;4858329;29;20524;-87
2021/10/04 11:06:09;;;;;;;11.02;1.77;;;14.90;99.90;;;;;;4862445;29;20055;-87
2021/10/04 11:08:34;;;;;;;3.40;1.02;;;15.00;99.90;;;;;;4829707;29;20089;-87
2021/10/04 11:11:00;;;;;;;8.43;1.58;;;15.10;99.90;;;;;;4860022;29;20079;-88
2021/10/04 11:13:35;;;;;;;5.53;1.30;;;15.10;99.90;;;;;;4844650;29;20137;-87
2021/10/04 11:16:23;;;;;;;12.00;2.10;;;15.20;99.90;;;;;;4860037;29;20099;-87
2021/10/04 11:18:51;;;;;;;9.32;1.42;;;15.20;99.90;;;;;;4864196;29;20446;-89
2021/10/04 11:21:23;;;;;;;11.10;1.52;;;15.30;99.90;;;;;;4859807;29;20635;-87
2021/10/04 11:24:02;;;;;;;5.53;1.15;;;15.30;99.90;;;;;;4876794;29;20084;-90
2021/10/04 11:26:28;;;;;;;7.37;1.30;;;15.50;99.90;;;;;;4848418;29;20389;-90
2021/10/04 11:28:57;;;;;;;5.22;1.65;;;15.50;99.90;;;;;;4840553;29;20053;-90
2021/10/04 11:31:29;;;;;;;9.68;1.52;;;15.50;99.90;;;;;;4843663;29;21578;-90
2021/10/04 11:34:04;;;;;;;5.90;1.95;;;15.50;99.90;;;;;;4846426;29;20056;-90
2021/10/04 11:36:41;;;;;;;11.00;1.92;;;15.50;99.90;;;;;;4847629;29;20058;-91
2021/10/04 11:39:31;;;;;;;4.45;1.20;;;15.60;99.90;;;;;;4860285;29;20079;-89
2021/10/04 11:42:03;;;;;;;10.02;1.35;;;15.70;99.90;;;;;;4846909;29;20455;-90
2021/10/04 11:44:28;;;;;;;7.82;1.17;;;15.70;99.90;;;;;;4872249;29;20049;-90
2021/10/04 11:47:05;;;;;;;8.50;1.20;;;15.80;99.90;;;;;;4849571;29;20064;-89
2021/10/04 11:49:40;;;;;;;3.45;0.95;;;15.80;99.90;;;;;;4869636;29;20063;-90
2021/10/04 11:52:17;;;;;;;5.28;1.25;;;15.90;99.90;;;;;;4856795;29;20067;-89
2021/10/04 11:54:45;;;;;;;5.40;1.08;;;16.00;99.90;;;;;;4853272;29;20052;-90
2021/10/04 11:57:31;;;;;;;4.22;1.17;;;16.10;99.90;;;;;;4858936;29;20049;-90
2021/10/04 12:00:08;;;;;;;8.63;1.38;;;16.20;99.90;;;;;;4859395;29;20101;-89
2021/10/04 12:02:40;;;;;;;3.83;0.90;;;16.20;99.90;;;;;;4859273;29;20151;-90
2021/10/04 12:05:17;;;;;;;4.82;1.13;;;16.30;99.90;;;;;;4846536;29;20056;-90
2021/10/04 12:08:08;;;;;;;6.38;1.23;;;16.30;99.90;;;;;;4894998;29;20073;-90
2021/10/04 12:10:48;;;;;;;8.80;1.47;;;16.40;99.90;;;;;;4867695;29;20056;-90
2021/10/04 12:13:20;;;;;;;3.42;0.85;;;16.50;99.90;;;;;;4857423;29;20064;-90
2021/10/04 12:15:48;;;;;;;10.43;1.30;;;16.60;99.90;;;;;;4864937;29;20051;-90
2021/10/04 12:18:21;;;;;;;10.02;0.90;;;16.60;99.90;;;;;;4862849;29;20094;-89
2021/10/04 12:20:48;;;;;;;5.28;1.45;;;16.70;99.90;;;;;;4845772;29;20049;-90
2021/10/04 12:23:20;;;;;;;3.30;1.23;;;16.70;99.90;;;;;;4842516;29;20052;-89
2021/10/04 12:25:47;;;;;;;8.18;1.10;;;16.80;99.90;;;;;;4848610;29;20452;-90
2021/10/04 12:28:17;;;;;;;8.52;1.15;;;16.90;99.90;;;;;;4846576;29;20112;-90
2021/10/04 12:30:46;;;;;;;4.97;1.00;;;17.00;99.90;;;;;;4861759;29;20144;-91
2021/10/04 12:33:12;;;;;;;6.80;2.33;;;17.20;99.90;;;;;;4857898;29;20053;-90
2021/10/04 12:35:39;;;;;;;9.15;1.20;;;17.20;99.90;;;;;;4847022;29;20049;-90
2021/10/04 12:38:08;;;;;;;5.78;1.38;;;17.20;99.90;;;;;;4842795;29;20498;-91
2021/10/04 12:40:46;;;;;;;8.43;1.40;;;17.30;99.90;;;;;;4845865;29;20151;-91
2021/10/04 12:43:21;;;;;;;4.88;0.90;;;17.40;99.90;;;;;;4855938;29;20104;-90
2021/10/04 12:46:07;;;;;;;5.22;0.93;;;17.50;99.90;;;;;;4860680;29;20064;-91
2021/10/04 12:48:43;;;;;;;5.65;0.98;;;17.70;99.90;;;;;;4853839;29;20076;-90
2021/10/04 12:51:13;;;;;;;8.25;1.40;;;17.70;99.90;;;;;;4854458;29;20068;-90